Copper Center, Alaska
Current Conditions -  °F | °C
As of 12:53 PM on Friday 24 Oct 2014 (Local Time) from PAGK Reporting Station
Overcast Overcast  
Wind Chill: 28°   Ceiling: 4400
Heat Index: 28°   Visibility: 10mi
Dew Point: 25°   Wind: 0mph
Humidity: 88%   Direction: NA
Pressure: 29.82"   Gusts: NA
Location:  61.95°N, 145.31°W
Report Text: PAGK 242053Z AUTO 00000KT 10SM FEW030 BKN044 OVC070 M02/M04 A2982 RMK AO2 SLP128 60000 T10221039 53008 TSNO
Loading
Personal Weather Stations






























Interactive Weather Map
Tropical Storm Tracking
New forecast layout! Learn more

10-Day Weather Forecast

Advertisements
Track Severe Weather on mobile